Time;durP1;ratioP1;P1;durP2;ratioP2;P2;SDS_P1;SDS_P2;PMS_P1;PMS_P2;Temp;Humidity;BMP_temperature;BMP_pressure;BME280_temperature;BME280_humidity;BME280_pressure;Samples;Min_cycle;Max_cycle;Signal;HPM_P1;HPM_P2
2021/09/05 00:01:53;;;;;;;8.93;5.63;;;18.00;70.10;;;;;;5078081;28;20032;-70
2021/09/05 00:04:19;;;;;;;8.38;5.05;;;18.10;70.10;;;;;;5096579;28;20429;-70
2021/09/05 00:06:45;;;;;;;7.28;5.47;;;18.00;70.00;;;;;;5096265;28;20066;-71
2021/09/05 00:09:10;;;;;;;7.15;5.25;;;18.10;70.20;;;;;;5096505;28;20036;-70
2021/09/05 00:11:36;;;;;;;8.13;4.97;;;18.00;70.10;;;;;;5096453;28;20115;-71
2021/09/05 00:14:02;;;;;;;6.80;5.15;;;18.00;70.10;;;;;;5096254;28;20036;-70
2021/09/05 00:16:30;;;;;;;9.75;5.28;;;18.00;70.10;;;;;;5096434;28;20119;-70
2021/09/05 00:18:59;;;;;;;5.78;4.80;;;18.00;70.20;;;;;;5078397;28;20086;-70
2021/09/05 00:21:25;;;;;;;8.85;5.40;;;18.00;70.40;;;;;;5096284;28;20047;-70
2021/09/05 00:23:51;;;;;;;8.43;4.88;;;17.90;70.20;;;;;;5096337;28;20036;-70
2021/09/05 00:26:17;;;;;;;6.95;5.25;;;17.90;70.40;;;;;;5095930;28;20438;-70
2021/09/05 00:28:43;;;;;;;7.75;4.97;;;17.90;70.30;;;;;;5095849;28;20051;-70
2021/09/05 00:31:09;;;;;;;8.30;5.10;;;17.90;70.20;;;;;;5095818;28;20123;-70
2021/09/05 00:33:35;;;;;;;7.65;5.38;;;17.90;70.30;;;;;;5095245;28;20039;-70
2021/09/05 00:36:00;;;;;;;7.15;4.90;;;17.90;70.20;;;;;;5095852;28;20104;-70
2021/09/05 00:38:26;;;;;;;7.60;5.13;;;17.90;70.40;;;;;;5061486;28;20059;-70
2021/09/05 00:40:52;;;;;;;8.15;4.50;;;17.90;70.40;;;;;;5095955;28;20044;-70
2021/09/05 00:43:18;;;;;;;7.50;4.97;;;17.90;70.30;;;;;;5095573;28;20106;-70
2021/09/05 00:45:44;;;;;;;6.88;4.43;;;17.90;70.30;;;;;;5095643;28;20076;-70
2021/09/05 00:48:10;;;;;;;6.20;4.70;;;17.90;70.40;;;;;;5095617;28;20044;-71
2021/09/05 00:50:36;;;;;;;8.18;5.18;;;17.80;70.40;;;;;;5078077;28;20051;-70
2021/09/05 00:53:04;;;;;;;7.35;4.63;;;17.80;70.40;;;;;;5095580;28;20427;-70
2021/09/05 00:55:35;;;;;;;7.07;5.07;;;17.80;70.40;;;;;;5077897;28;20044;-71
2021/09/05 00:58:01;;;;;;;6.68;5.10;;;17.80;70.50;;;;;;5095244;28;20097;-70
2021/09/05 01:00:26;;;;;;;7.68;5.50;;;17.90;70.60;;;;;;5094555;28;20040;-71
2021/09/05 01:02:52;;;;;;;7.88;4.88;;;17.80;70.40;;;;;;5095108;28;20055;-70
2021/09/05 01:05:18;;;;;;;7.93;5.43;;;17.80;70.50;;;;;;5095252;28;20051;-70
2021/09/05 01:07:44;;;;;;;10.80;5.53;;;17.80;70.50;;;;;;5095661;28;20043;-70
2021/09/05 01:10:12;;;;;;;10.10;5.25;;;17.80;70.50;;;;;;5095492;28;20035;-70
2021/09/05 01:12:38;;;;;;;7.00;5.03;;;17.80;70.50;;;;;;5095363;28;20063;-70
2021/09/05 01:15:05;;;;;;;7.72;5.35;;;17.80;70.40;;;;;;5095696;28;20085;-70
2021/09/05 01:17:38;;;;;;;8.48;5.50;;;17.70;70.40;;;;;;5077724;28;20040;-70
2021/09/05 01:20:07;;;;;;;6.90;4.82;;;17.70;70.50;;;;;;5095225;28;20069;-70
2021/09/05 01:22:33;;;;;;;7.65;4.97;;;17.70;70.30;;;;;;5077490;28;20048;-70
2021/09/05 01:24:59;;;;;;;9.65;5.50;;;17.70;71.10;;;;;;5077835;28;20040;-70
2021/09/05 01:27:25;;;;;;;8.75;5.97;;;17.70;70.60;;;;;;5094935;28;20419;-70
2021/09/05 01:29:51;;;;;;;8.80;5.13;;;17.70;70.50;;;;;;5095217;28;20048;-71
2021/09/05 01:32:17;;;;;;;9.30;5.53;;;17.70;70.60;;;;;;5094731;28;20040;-70
2021/09/05 01:34:43;;;;;;;9.68;5.82;;;17.70;70.80;;;;;;5094766;28;20039;-71
2021/09/05 01:37:09;;;;;;;7.18;5.05;;;17.70;70.70;;;;;;5095275;28;20134;-72
2021/09/05 01:39:34;;;;;;;6.45;4.40;;;17.70;70.60;;;;;;5095356;28;20097;-71
2021/09/05 01:42:00;;;;;;;8.27;4.97;;;17.70;70.90;;;;;;5077445;28;20117;-70
2021/09/05 01:44:26;;;;;;;6.95;4.90;;;17.60;70.70;;;;;;5076954;28;20043;-70
2021/09/05 01:46:52;;;;;;;7.60;4.88;;;17.60;70.60;;;;;;5095630;28;20094;-70
2021/09/05 01:49:18;;;;;;;7.50;5.57;;;17.60;70.80;;;;;;5095222;28;20416;-70
2021/09/05 01:51:43;;;;;;;9.20;5.97;;;17.60;70.70;;;;;;5095805;28;20094;-71
2021/09/05 01:54:09;;;;;;;6.63;5.10;;;17.60;70.70;;;;;;5094863;28;20044;-70
2021/09/05 01:56:35;;;;;;;8.38;5.10;;;17.60;70.80;;;;;;5095209;28;20369;-70
2021/09/05 01:59:02;;;;;;;7.30;4.85;;;17.60;70.90;;;;;;5094870;28;20065;-71
2021/09/05 02:01:30;;;;;;;9.85;5.88;;;17.60;70.70;;;;;;5095188;28;20051;-71
2021/09/05 02:03:56;;;;;;;7.28;5.10;;;17.60;70.90;;;;;;5094794;28;20040;-71
2021/09/05 02:06:22;;;;;;;6.15;4.88;;;17.60;70.80;;;;;;5094757;28;20044;-71
2021/09/05 02:08:48;;;;;;;7.28;5.18;;;17.60;70.90;;;;;;5094704;28;20101;-69
2021/09/05 02:11:14;;;;;;;9.38;5.82;;;17.60;71.00;;;;;;5095419;28;20039;-71
2021/09/05 02:13:40;;;;;;;9.38;5.65;;;17.60;70.80;;;;;;5098126;28;20043;-70
2021/09/05 02:16:07;;;;;;;7.20;5.32;;;17.60;71.00;;;;;;5064249;28;20048;-71
2021/09/05 02:18:33;;;;;;;8.27;5.63;;;17.60;71.00;;;;;;5098739;28;20185;-70
2021/09/05 02:20:59;;;;;;;8.98;5.45;;;17.60;70.80;;;;;;5098664;28;20130;-71
2021/09/05 02:23:24;;;;;;;8.05;5.63;;;17.50;70.70;;;;;;5081044;28;20119;-70
2021/09/05 02:25:50;;;;;;;9.02;5.63;;;17.60;70.80;;;;;;5098023;28;20407;-70
2021/09/05 02:28:16;;;;;;;7.35;5.93;;;17.50;70.80;;;;;;5098211;28;20042;-69
2021/09/05 02:30:41;;;;;;;8.40;5.00;;;17.50;70.80;;;;;;5098355;28;20317;-70
2021/09/05 02:33:08;;;;;;;7.88;5.90;;;17.50;70.70;;;;;;5097889;28;20040;-71
2021/09/05 02:35:34;;;;;;;7.40;5.30;;;17.50;70.90;;;;;;5098303;28;20040;-70
2021/09/05 02:37:59;;;;;;;8.85;5.90;;;17.50;70.80;;;;;;5097946;28;20047;-70
2021/09/05 02:40:25;;;;;;;8.50;6.10;;;17.50;70.70;;;;;;5098608;28;20070;-71
2021/09/05 02:42:51;;;;;;;9.05;5.40;;;17.50;70.70;;;;;;5098402;28;20052;-71
2021/09/05 02:45:17;;;;;;;7.28;5.32;;;17.50;70.80;;;;;;5098271;28;20055;-71
2021/09/05 02:47:43;;;;;;;7.50;5.13;;;17.50;70.70;;;;;;5098414;28;20123;-70
2021/09/05 02:50:09;;;;;;;7.05;4.88;;;17.50;70.40;;;;;;5098098;28;20048;-70
2021/09/05 02:52:36;;;;;;;7.03;4.45;;;17.50;70.50;;;;;;5097698;28;20075;-70
2021/09/05 02:55:02;;;;;;;6.35;4.55;;;17.50;70.20;;;;;;5098457;28;20044;-71
2021/09/05 02:57:27;;;;;;;8.82;5.20;;;17.50;70.10;;;;;;5097705;28;20039;-71
2021/09/05 02:59:53;;;;;;;10.50;5.00;;;17.40;70.00;;;;;;5097979;28;20119;-70
2021/09/05 03:02:19;;;;;;;7.10;5.18;;;17.40;69.90;;;;;;5097519;28;20481;-70
2021/09/05 03:04:45;;;;;;;9.13;5.38;;;17.40;69.80;;;;;;5097105;28;20439;-70
2021/09/05 03:07:10;;;;;;;7.07;5.13;;;17.40;70.30;;;;;;5097389;28;20055;-70
2021/09/05 03:09:37;;;;;;;7.82;4.88;;;17.40;70.20;;;;;;5097989;28;20039;-71
2021/09/05 03:12:04;;;;;;;6.53;4.93;;;17.40;70.30;;;;;;5097760;28;20050;-70
2021/09/05 03:14:29;;;;;;;7.03;4.88;;;17.40;70.10;;;;;;5097908;28;20047;-70
2021/09/05 03:16:55;;;;;;;6.70;4.85;;;17.40;70.00;;;;;;5097598;28;20405;-70
2021/09/05 03:19:21;;;;;;;7.35;4.43;;;17.40;70.10;;;;;;5097404;28;20051;-70
2021/09/05 03:21:47;;;;;;;7.18;4.40;;;17.40;70.00;;;;;;5097737;28;20047;-70
2021/09/05 03:24:13;;;;;;;7.32;4.72;;;17.40;69.80;;;;;;5096156;28;20044;-70
2021/09/05 03:26:39;;;;;;;6.47;4.63;;;17.30;69.90;;;;;;5096938;28;20443;-70
2021/09/05 03:29:05;;;;;;;6.63;4.82;;;17.30;69.80;;;;;;5097480;28;20044;-69
2021/09/05 03:31:31;;;;;;;8.30;4.60;;;17.30;70.00;;;;;;5096872;28;20054;-70
2021/09/05 03:33:57;;;;;;;6.25;3.90;;;17.30;70.50;;;;;;5096966;28;20119;-70
2021/09/05 03:36:22;;;;;;;7.93;4.22;;;17.30;69.80;;;;;;5097694;28;20040;-71
2021/09/05 03:38:48;;;;;;;6.65;4.38;;;17.20;69.90;;;;;;5096975;28;20044;-70
2021/09/05 03:41:14;;;;;;;6.53;4.13;;;17.20;69.90;;;;;;5096947;28;20047;-71
2021/09/05 03:43:40;;;;;;;4.97;3.35;;;17.20;70.10;;;;;;5096679;28;20052;-70
2021/09/05 03:46:05;;;;;;;6.32;3.70;;;17.20;70.10;;;;;;5097036;28;20091;-70
2021/09/05 03:48:32;;;;;;;5.22;3.65;;;17.10;70.20;;;;;;5096619;28;20523;-71
2021/09/05 03:50:58;;;;;;;4.78;3.30;;;17.10;70.10;;;;;;5097607;28;20048;-70
2021/09/05 03:53:26;;;;;;;4.28;3.08;;;17.10;70.30;;;;;;5062988;28;20050;-71
2021/09/05 03:55:54;;;;;;;3.88;2.83;;;17.10;70.10;;;;;;5097390;28;20118;-70
2021/09/05 03:58:21;;;;;;;3.47;2.50;;;17.10;70.20;;;;;;5096435;28;20332;-70
2021/09/05 04:00:47;;;;;;;2.95;2.28;;;17.00;70.30;;;;;;5097198;28;20427;-71
2021/09/05 04:03:13;;;;;;;3.17;2.40;;;17.00;70.50;;;;;;5095933;28;20046;-70
2021/09/05 04:05:39;;;;;;;2.95;2.00;;;17.00;70.30;;;;;;5095749;28;20048;-70
2021/09/05 04:10:35;;;;;;;3.00;2.30;;;17.00;70.50;;;;;;5078897;28;20067;-70
2021/09/05 04:13:01;;;;;;;3.63;2.20;;;17.00;70.30;;;;;;5096534;28;20048;-70
2021/09/05 04:15:27;;;;;;;3.20;2.35;;;17.00;70.50;;;;;;5096585;28;20058;-70
2021/09/05 04:17:54;;;;;;;3.03;2.15;;;17.00;70.70;;;;;;5087822;28;20036;-71
2021/09/05 04:20:19;;;;;;;3.92;2.47;;;17.00;70.60;;;;;;5075563;28;20340;-70
2021/09/05 04:22:45;;;;;;;3.03;2.20;;;17.00;70.70;;;;;;5076135;28;20052;-71
2021/09/05 04:25:12;;;;;;;2.47;1.80;;;17.00;70.90;;;;;;5076071;28;20036;-70
2021/09/05 04:27:38;;;;;;;3.78;2.13;;;17.00;70.80;;;;;;5057969;28;20369;-71
2021/09/05 04:30:05;;;;;;;2.95;2.30;;;17.00;70.90;;;;;;5075786;28;20044;-70
2021/09/05 04:32:32;;;;;;;2.40;2.00;;;17.00;70.90;;;;;;5083918;28;20036;-71
2021/09/05 04:34:58;;;;;;;3.03;2.25;;;17.10;70.90;;;;;;5094874;28;20048;-71
2021/09/05 04:37:24;;;;;;;2.40;1.60;;;17.10;71.00;;;;;;5082616;28;20054;-70
2021/09/05 04:39:50;;;;;;;2.50;1.83;;;17.10;71.10;;;;;;5107168;28;20050;-72
2021/09/05 04:42:16;;;;;;;2.67;1.83;;;17.00;71.00;;;;;;5090189;28;20459;-72
2021/09/05 04:44:42;;;;;;;2.75;1.60;;;17.10;71.00;;;;;;5106827;28;20035;-69
2021/09/05 04:47:08;;;;;;;3.13;1.60;;;17.10;70.90;;;;;;5099155;28;20040;-70
2021/09/05 04:49:34;;;;;;;2.05;1.42;;;17.10;71.00;;;;;;5100465;28;20036;-70
2021/09/05 04:52:01;;;;;;;2.47;1.27;;;17.10;71.10;;;;;;5110435;28;20362;-70
2021/09/05 04:54:26;;;;;;;1.63;1.48;;;17.10;71.00;;;;;;5103729;28;20116;-70
2021/09/05 04:56:53;;;;;;;2.30;1.83;;;17.20;70.70;;;;;;5101919;28;20442;-71
2021/09/05 04:59:19;;;;;;;4.82;2.17;;;17.40;69.00;;;;;;5105673;28;20054;-71
2021/09/05 05:01:45;;;;;;;3.47;2.20;;;17.30;68.10;;;;;;5111918;28;20036;-70
2021/09/05 05:04:11;;;;;;;2.83;2.53;;;17.30;68.40;;;;;;5102286;28;20050;-69
2021/09/05 05:06:41;;;;;;;3.50;2.80;;;17.20;67.80;;;;;;5101650;28;20391;-70
2021/09/05 05:09:11;;;;;;;3.53;3.13;;;17.20;67.90;;;;;;5094780;28;20032;-69
2021/09/05 05:11:37;;;;;;;3.70;3.25;;;17.10;67.70;;;;;;5095228;28;20055;-69
2021/09/05 05:14:03;;;;;;;3.20;2.90;;;17.00;67.90;;;;;;5096008;28;20048;-69
2021/09/05 05:16:29;;;;;;;3.83;2.83;;;16.90;68.10;;;;;;5095240;28;20051;-69
2021/09/05 05:18:55;;;;;;;3.88;2.50;;;16.80;68.80;;;;;;5094933;28;20044;-69
2021/09/05 05:21:20;;;;;;;2.35;2.00;;;16.80;69.50;;;;;;5095378;28;20111;-69
2021/09/05 05:23:46;;;;;;;3.15;2.00;;;16.80;69.80;;;;;;5094829;28;20054;-69
2021/09/05 05:26:12;;;;;;;2.22;2.00;;;16.90;69.90;;;;;;5095421;28;20036;-69
2021/09/05 05:28:38;;;;;;;2.40;1.63;;;17.00;69.90;;;;;;5094687;28;20065;-69
2021/09/05 05:31:03;;;;;;;4.20;1.83;;;17.00;69.90;;;;;;5095532;28;20044;-69
2021/09/05 05:33:29;;;;;;;2.33;1.75;;;17.00;69.80;;;;;;5094202;28;20454;-69
2021/09/05 05:35:55;;;;;;;1.90;1.40;;;17.10;69.90;;;;;;5073076;28;20307;-69
2021/09/05 05:38:21;;;;;;;3.30;2.00;;;17.10;69.90;;;;;;5073349;28;20127;-69
2021/09/05 05:40:47;;;;;;;1.92;1.60;;;17.10;69.90;;;;;;5073454;28;20060;-69
2021/09/05 05:43:12;;;;;;;2.33;2.10;;;17.10;69.90;;;;;;5073218;28;20060;-69
2021/09/05 05:45:38;;;;;;;3.67;1.80;;;17.10;70.00;;;;;;5090899;28;20133;-69
2021/09/05 05:48:04;;;;;;;2.47;1.75;;;17.10;70.10;;;;;;5077706;28;20119;-68
2021/09/05 05:50:30;;;;;;;2.97;1.90;;;17.10;70.20;;;;;;5095336;28;20454;-69
2021/09/05 05:52:56;;;;;;;1.95;1.48;;;17.10;70.20;;;;;;5095537;28;20039;-69
2021/09/05 05:55:21;;;;;;;2.08;1.52;;;17.20;70.40;;;;;;5076325;28;20075;-68
2021/09/05 05:57:47;;;;;;;4.13;1.80;;;17.10;70.10;;;;;;5095787;28;20035;-71
2021/09/05 06:00:14;;;;;;;3.05;1.67;;;17.20;70.20;;;;;;5097788;28;20476;-69
2021/09/05 06:02:40;;;;;;;2.22;1.73;;;17.20;70.40;;;;;;5097633;28;20068;-69
2021/09/05 06:05:06;;;;;;;2.03;1.83;;;17.20;70.50;;;;;;5097690;28;20463;-68
2021/09/05 06:07:32;;;;;;;2.15;1.52;;;17.20;70.60;;;;;;5098377;28;20397;-68
2021/09/05 06:09:57;;;;;;;9.40;1.70;;;17.20;70.70;;;;;;5098601;28;20105;-68
2021/09/05 06:12:23;;;;;;;2.78;1.70;;;17.20;70.70;;;;;;5098736;28;20449;-69
2021/09/05 06:14:49;;;;;;;2.42;1.88;;;17.20;70.80;;;;;;5098667;28;20379;-69
2021/09/05 06:17:15;;;;;;;2.38;1.70;;;17.20;70.80;;;;;;5098814;28;20347;-69
2021/09/05 06:19:40;;;;;;;2.53;1.90;;;17.20;70.90;;;;;;5098364;28;20036;-69
2021/09/05 06:22:06;;;;;;;3.60;2.25;;;17.30;71.00;;;;;;5098424;28;20415;-69
2021/09/05 06:24:32;;;;;;;2.25;1.90;;;17.30;71.00;;;;;;5097953;28;20128;-69
2021/09/05 06:26:58;;;;;;;3.65;2.13;;;17.30;71.00;;;;;;5098518;28;20055;-69
2021/09/05 06:29:23;;;;;;;2.47;2.00;;;17.30;71.10;;;;;;5076564;28;20048;-69
2021/09/05 06:31:49;;;;;;;2.80;1.88;;;17.30;71.20;;;;;;5060649;28;20040;-69
2021/09/05 06:34:15;;;;;;;2.47;1.98;;;17.30;71.20;;;;;;5071121;28;20039;-70
2021/09/05 06:36:41;;;;;;;2.58;1.92;;;17.30;71.20;;;;;;5098011;28;20162;-68
2021/09/05 06:39:06;;;;;;;5.70;2.67;;;17.40;71.20;;;;;;5080497;28;20036;-69
2021/09/05 06:41:32;;;;;;;3.65;2.25;;;17.40;71.20;;;;;;5103488;28;20035;-68
2021/09/05 06:43:58;;;;;;;7.72;2.33;;;17.40;71.30;;;;;;5110710;28;20413;-69
2021/09/05 06:46:24;;;;;;;6.82;5.03;;;17.40;71.40;;;;;;5081449;28;20106;-72
2021/09/05 06:48:50;;;;;;;11.45;8.60;;;17.50;71.20;;;;;;5097784;28;20094;-70
2021/09/05 06:51:16;;;;;;;12.25;9.10;;;17.70;70.80;;;;;;5097137;28;20427;-69
2021/09/05 06:53:42;;;;;;;12.73;8.10;;;17.70;70.80;;;;;;5097632;28;20035;-72
2021/09/05 06:56:09;;;;;;;10.07;7.75;;;17.60;71.00;;;;;;5097204;28;20088;-70
2021/09/05 06:58:35;;;;;;;11.63;7.32;;;17.50;71.50;;;;;;5095730;28;20040;-73
2021/09/05 07:01:02;;;;;;;11.65;7.45;;;17.50;71.80;;;;;;5080227;28;20040;-76
2021/09/05 07:03:28;;;;;;;13.10;7.63;;;17.60;71.70;;;;;;5076271;28;20037;-76
2021/09/05 07:05:54;;;;;;;17.05;10.45;;;17.70;71.60;;;;;;5061129;28;20055;-73
2021/09/05 07:08:20;;;;;;;17.77;9.02;;;17.70;72.30;;;;;;5097576;28;20127;-69
2021/09/05 07:10:46;;;;;;;13.23;7.30;;;17.70;72.10;;;;;;5097428;28;20407;-70
2021/09/05 07:13:11;;;;;;;14.13;9.38;;;17.70;72.10;;;;;;5077218;28;20134;-71
2021/09/05 07:15:37;;;;;;;14.23;11.13;;;17.80;72.20;;;;;;5067242;28;20052;-70
2021/09/05 07:18:04;;;;;;;19.23;12.73;;;17.80;72.00;;;;;;5077044;28;20037;-71
2021/09/05 07:20:31;;;;;;;17.38;13.52;;;17.80;72.20;;;;;;5092734;28;20074;-70
2021/09/05 07:22:57;;;;;;;17.38;12.88;;;17.80;72.40;;;;;;5097173;28;20123;-71
2021/09/05 07:25:25;;;;;;;19.02;13.52;;;17.70;72.70;;;;;;5079195;28;20043;-69
2021/09/05 07:27:51;;;;;;;18.40;11.90;;;17.70;73.20;;;;;;5095852;28;20089;-70
2021/09/05 07:30:16;;;;;;;18.27;11.30;;;17.70;73.20;;;;;;5096389;28;20075;-70
2021/09/05 07:32:43;;;;;;;18.70;10.93;;;17.70;73.80;;;;;;5077762;28;20795;-69
2021/09/05 07:35:09;;;;;;;14.43;10.45;;;17.70;73.70;;;;;;5096995;28;20051;-71
2021/09/05 07:37:36;;;;;;;14.10;10.45;;;17.70;73.70;;;;;;5097031;28;20193;-69
2021/09/05 07:40:03;;;;;;;14.40;10.60;;;17.70;73.90;;;;;;5097012;28;20090;-69
2021/09/05 07:42:28;;;;;;;14.70;10.48;;;17.70;74.30;;;;;;5079206;28;20040;-69
2021/09/05 07:44:54;;;;;;;23.58;12.32;;;17.70;74.30;;;;;;5096413;28;20048;-69
2021/09/05 07:47:20;;;;;;;20.23;13.23;;;17.80;74.30;;;;;;5096391;28;20101;-70
2021/09/05 07:49:46;;;;;;;21.30;13.73;;;18.00;74.00;;;;;;5097208;28;20036;-69
2021/09/05 07:52:11;;;;;;;17.77;14.20;;;18.00;73.80;;;;;;5095864;28;20054;-70
2021/09/05 07:54:37;;;;;;;21.13;13.98;;;18.10;73.70;;;;;;5096865;28;20351;-71
2021/09/05 07:57:03;;;;;;;19.08;14.13;;;18.00;73.80;;;;;;5096432;28;20131;-70
2021/09/05 07:59:29;;;;;;;19.70;14.05;;;18.10;73.90;;;;;;5096287;28;20043;-69
2021/09/05 08:01:54;;;;;;;19.10;12.52;;;18.10;73.90;;;;;;5095616;28;20036;-70
2021/09/05 08:04:20;;;;;;;16.73;12.90;;;18.00;73.90;;;;;;5096192;28;20120;-76
2021/09/05 08:06:46;;;;;;;19.67;13.35;;;18.10;74.10;;;;;;5096348;28;20046;-72
2021/09/05 08:09:11;;;;;;;16.15;11.95;;;18.20;74.60;;;;;;5096167;28;20039;-71
2021/09/05 08:11:37;;;;;;;17.40;11.23;;;18.20;74.50;;;;;;5096320;28;20439;-74
2021/09/05 08:14:03;;;;;;;20.42;10.63;;;18.30;74.70;;;;;;5095989;28;20343;-68
2021/09/05 08:16:29;;;;;;;15.18;10.05;;;18.30;74.40;;;;;;5096085;28;20044;-70
2021/09/05 08:18:54;;;;;;;16.02;9.73;;;18.30;74.30;;;;;;5096119;28;20036;-69
2021/09/05 08:21:21;;;;;;;16.33;10.00;;;18.30;74.50;;;;;;5078593;28;20055;-70
2021/09/05 08:23:46;;;;;;;18.98;10.50;;;18.30;74.90;;;;;;5096234;28;20456;-70
2021/09/05 08:26:12;;;;;;;15.73;10.27;;;18.30;75.30;;;;;;5095742;28;20078;-70
2021/09/05 08:28:40;;;;;;;15.23;9.25;;;18.30;76.00;;;;;;5095891;28;20043;-72
2021/09/05 08:31:06;;;;;;;15.32;9.65;;;18.40;77.20;;;;;;5076419;28;20048;-69
2021/09/05 08:33:32;;;;;;;13.35;8.70;;;18.40;77.30;;;;;;5095526;28;20040;-69
2021/09/05 08:35:58;;;;;;;12.05;8.10;;;18.40;77.20;;;;;;5095862;28;20054;-68
2021/09/05 08:38:25;;;;;;;13.63;8.73;;;18.40;77.00;;;;;;5095695;28;20048;-76
2021/09/05 08:40:51;;;;;;;12.43;8.10;;;18.40;77.10;;;;;;5095782;28;20052;-74
2021/09/05 08:43:18;;;;;;;12.65;7.88;;;18.50;77.30;;;;;;5094940;28;20101;-75
2021/09/05 08:45:48;;;;;;;11.15;8.15;;;18.60;77.10;;;;;;5077835;28;20040;-73
2021/09/05 08:48:19;;;;;;;13.20;7.53;;;18.60;76.80;;;;;;5094665;28;20113;-75
2021/09/05 08:50:46;;;;;;;16.20;9.02;;;18.60;76.20;;;;;;5090320;28;20079;-75
2021/09/05 08:53:13;;;;;;;17.10;7.53;;;18.60;76.30;;;;;;5093501;28;20047;-75
2021/09/05 08:55:39;;;;;;;16.70;9.38;;;18.60;76.30;;;;;;5072492;28;20044;-76
2021/09/05 08:58:05;;;;;;;17.85;9.30;;;18.60;76.20;;;;;;5075010;28;20037;-76
2021/09/05 09:00:33;;;;;;;19.38;9.50;;;18.60;76.00;;;;;;5075034;28;20040;-78
2021/09/05 09:03:00;;;;;;;19.55;9.68;;;18.60;76.10;;;;;;5057302;28;20452;-78
2021/09/05 09:05:39;;;;;;;20.13;9.48;;;18.70;76.30;;;;;;5078626;28;20052;-77
2021/09/05 09:08:13;;;;;;;21.88;9.10;;;18.70;76.30;;;;;;5095333;28;20040;-77
2021/09/05 09:10:54;;;;;;;19.30;9.13;;;18.70;77.00;;;;;;5095011;28;20507;-77
2021/09/05 09:13:28;;;;;;;13.57;8.48;;;18.70;76.30;;;;;;5095112;28;20109;-76
2021/09/05 09:15:56;;;;;;;17.05;8.30;;;18.70;76.40;;;;;;5077483;28;20044;-77
2021/09/05 09:18:28;;;;;;;17.25;7.90;;;18.70;76.30;;;;;;5095168;28;20067;-76
2021/09/05 09:20:55;;;;;;;16.05;8.07;;;18.70;76.40;;;;;;5094477;28;20028;-76
2021/09/05 09:23:23;;;;;;;12.80;7.55;;;18.70;76.30;;;;;;5095372;28;20040;-76
2021/09/05 09:26:06;;;;;;;11.85;7.57;;;18.70;76.20;;;;;;5095503;28;20145;-77
2021/09/05 09:28:46;;;;;;;13.30;7.28;;;18.70;76.70;;;;;;5095299;28;20043;-77
2021/09/05 09:31:13;;;;;;;14.48;7.68;;;18.80;76.00;;;;;;5073803;28;20048;-78
2021/09/05 09:33:40;;;;;;;16.08;7.85;;;18.80;75.70;;;;;;5074980;28;20044;-77
2021/09/05 09:36:07;;;;;;;16.13;7.10;;;18.90;76.20;;;;;;5057402;28;20328;-77
2021/09/05 09:38:33;;;;;;;14.43;7.57;;;18.90;75.60;;;;;;5057517;28;20040;-77
2021/09/05 09:41:16;;;;;;;14.02;7.00;;;18.90;75.50;;;;;;5057213;28;20110;-78
2021/09/05 09:44:08;;;;;;;10.68;6.65;;;18.90;75.60;;;;;;5074438;28;20413;-77
2021/09/05 09:46:36;;;;;;;13.75;6.35;;;19.00;75.60;;;;;;5074896;28;20052;-77
2021/09/05 09:49:04;;;;;;;12.15;7.05;;;18.90;75.60;;;;;;5074813;28;20128;-77
2021/09/05 09:51:31;;;;;;;12.40;6.82;;;19.00;75.60;;;;;;5057345;28;20053;-78
2021/09/05 09:53:57;;;;;;;12.00;7.03;;;19.00;75.50;;;;;;5074965;28;20044;-79
2021/09/05 09:56:24;;;;;;;10.50;6.53;;;19.00;75.50;;;;;;5074672;28;20335;-78
2021/09/05 09:58:52;;;;;;;10.80;7.03;;;19.00;75.50;;;;;;5074215;28;20048;-79
2021/09/05 10:01:20;;;;;;;11.40;6.30;;;19.00;75.50;;;;;;5067910;28;20051;-77
2021/09/05 10:03:51;;;;;;;9.85;6.85;;;19.00;75.70;;;;;;5093822;28;20044;-77
2021/09/05 10:06:17;;;;;;;11.18;7.00;;;19.00;75.50;;;;;;5076990;28;20047;-79
2021/09/05 10:08:44;;;;;;;9.65;6.07;;;19.00;75.60;;;;;;5077278;28;20126;-77
2021/09/05 10:11:11;;;;;;;13.18;6.35;;;19.00;75.60;;;;;;5077308;28;20044;-78
2021/09/05 10:13:39;;;;;;;11.30;6.28;;;19.10;75.60;;;;;;5094925;28;20052;-77
2021/09/05 10:16:06;;;;;;;10.57;5.63;;;19.00;75.30;;;;;;5076993;28;20063;-78
2021/09/05 10:18:34;;;;;;;9.82;5.72;;;19.00;75.30;;;;;;5077088;28;20123;-79
2021/09/05 10:21:00;;;;;;;8.65;6.65;;;19.10;75.50;;;;;;5095451;28;20052;-78
2021/09/05 10:23:34;;;;;;;9.55;6.38;;;19.10;75.50;;;;;;5094595;28;20102;-79
2021/09/05 10:26:11;;;;;;;11.18;7.05;;;19.10;75.50;;;;;;5077450;28;20138;-78
2021/09/05 10:28:38;;;;;;;10.10;6.03;;;19.10;75.60;;;;;;5077042;28;20054;-77
2021/09/05 10:31:07;;;;;;;10.07;6.43;;;19.10;75.50;;;;;;5076644;28;20329;-77
2021/09/05 10:33:38;;;;;;;8.15;6.20;;;19.10;75.40;;;;;;5097716;28;20146;-79
2021/09/05 10:36:12;;;;;;;10.98;6.38;;;19.10;75.40;;;;;;5063548;28;20047;-79
2021/09/05 10:38:40;;;;;;;10.95;6.28;;;19.10;75.40;;;;;;5097895;28;20104;-77
2021/09/05 10:41:20;;;;;;;10.80;6.70;;;19.10;75.40;;;;;;5077397;28;20442;-78
2021/09/05 10:43:49;;;;;;;11.48;5.60;;;19.10;75.30;;;;;;5088819;28;20056;-79
2021/09/05 10:46:17;;;;;;;9.25;6.03;;;19.20;75.30;;;;;;5097653;28;20131;-80
2021/09/05 10:48:49;;;;;;;10.30;6.47;;;19.20;75.40;;;;;;5097646;28;20118;-79
2021/09/05 10:51:17;;;;;;;9.75;6.28;;;19.20;75.50;;;;;;5097757;28;20112;-78
2021/09/05 10:54:00;;;;;;;7.63;6.03;;;19.20;75.40;;;;;;5097035;28;20043;-78
2021/09/05 10:56:26;;;;;;;11.93;6.72;;;19.20;75.30;;;;;;5096679;28;20568;-79
2021/09/05 10:59:04;;;;;;;9.63;6.43;;;19.20;75.30;;;;;;5097487;28;20084;-77
2021/09/05 11:01:41;;;;;;;10.05;5.82;;;19.20;75.20;;;;;;5079333;28;20044;-78
2021/09/05 11:04:12;;;;;;;11.35;6.60;;;19.30;75.30;;;;;;5059650;28;20132;-79
2021/09/05 11:06:52;;;;;;;11.10;6.28;;;19.30;75.20;;;;;;5059522;28;20056;-71
2021/09/05 11:09:17;;;;;;;10.60;5.97;;;19.20;75.20;;;;;;5077102;28;20059;-70
2021/09/05 11:11:52;;;;;;;11.00;6.20;;;19.20;75.20;;;;;;5077280;28;20044;-70
2021/09/05 11:14:17;;;;;;;11.95;5.80;;;19.20;75.10;;;;;;5077307;28;20352;-71
2021/09/05 11:16:43;;;;;;;10.68;5.90;;;19.30;75.30;;;;;;5077063;28;20044;-70
2021/09/05 11:19:18;;;;;;;9.68;5.72;;;19.20;75.20;;;;;;5077114;28;20133;-70
2021/09/05 11:21:44;;;;;;;8.85;5.50;;;19.30;75.30;;;;;;5077018;28;20036;-71
2021/09/05 11:24:10;;;;;;;9.95;6.25;;;19.30;75.20;;;;;;5077091;28;20048;-70
2021/09/05 11:26:35;;;;;;;8.52;5.57;;;19.30;75.00;;;;;;5076896;28;20075;-71
2021/09/05 11:29:24;;;;;;;10.85;5.60;;;19.30;74.90;;;;;;5077069;28;20052;-71
2021/09/05 11:31:50;;;;;;;12.93;5.57;;;19.40;74.90;;;;;;5096898;28;20082;-70
2021/09/05 11:34:16;;;;;;;9.90;5.80;;;19.30;74.80;;;;;;5097317;28;20048;-71
2021/09/05 11:36:43;;;;;;;8.75;5.43;;;19.40;75.40;;;;;;5096906;28;20043;-71
2021/09/05 11:39:09;;;;;;;6.88;5.13;;;19.40;74.80;;;;;;5096590;28;20113;-71
2021/09/05 11:41:35;;;;;;;10.02;5.65;;;19.40;74.80;;;;;;5096933;28;20046;-70
2021/09/05 11:44:01;;;;;;;9.50;5.60;;;19.40;74.80;;;;;;5095744;28;20130;-71
2021/09/05 11:46:26;;;;;;;7.07;5.10;;;19.40;75.30;;;;;;5096770;28;20374;-71
2021/09/05 11:49:01;;;;;;;7.95;5.30;;;19.40;74.70;;;;;;5096601;28;20051;-71
2021/09/05 11:51:28;;;;;;;9.98;5.63;;;19.40;74.70;;;;;;5094952;28;20040;-70
2021/09/05 11:54:01;;;;;;;7.53;5.28;;;19.40;74.60;;;;;;5072886;28;20501;-69
2021/09/05 11:56:30;;;;;;;9.30;5.07;;;19.40;74.80;;;;;;5096710;28;20040;-71
2021/09/05 11:59:10;;;;;;;11.20;5.30;;;19.40;74.70;;;;;;5096893;28;20040;-70
2021/09/05 12:01:45;;;;;;;8.13;5.05;;;19.40;74.90;;;;;;5096127;28;20040;-73
2021/09/05 12:04:14;;;;;;;10.18;5.50;;;19.40;74.60;;;;;;5074665;28;20097;-79
2021/09/05 12:06:43;;;;;;;8.55;5.10;;;19.50;74.60;;;;;;5078059;28;20328;-75
2021/09/05 12:09:10;;;;;;;12.40;6.82;;;19.50;74.60;;;;;;5096446;28;20111;-78
2021/09/05 12:11:58;;;;;;;20.30;9.25;;;19.50;74.50;;;;;;5096745;28;20031;-82
2021/09/05 12:14:32;;;;;;;11.75;7.18;;;19.60;75.40;;;;;;5096572;28;20036;-78
2021/09/05 12:16:59;;;;;;;11.27;8.35;;;19.60;74.90;;;;;;5078387;28;20055;-78
2021/09/05 12:19:25;;;;;;;13.30;8.18;;;19.60;74.40;;;;;;5078832;28;20040;-78
2021/09/05 12:21:58;;;;;;;10.73;7.90;;;19.60;74.10;;;;;;5078657;28;20466;-75
2021/09/05 12:24:24;;;;;;;11.25;7.65;;;19.60;74.00;;;;;;5096035;28;20035;-72
2021/09/05 12:26:50;;;;;;;17.67;8.75;;;19.60;74.00;;;;;;5095664;28;20032;-80
2021/09/05 12:29:30;;;;;;;10.68;6.85;;;19.60;74.20;;;;;;5078267;28;20043;-71
2021/09/05 12:32:02;;;;;;;11.35;7.00;;;19.60;74.30;;;;;;5096068;28;20048;-70
2021/09/05 12:34:41;;;;;;;11.95;7.63;;;19.60;74.90;;;;;;5096011;28;20047;-68
2021/09/05 12:37:21;;;;;;;11.20;6.68;;;19.60;74.30;;;;;;5095618;28;20055;-70
2021/09/05 12:39:53;;;;;;;12.25;6.60;;;19.60;74.40;;;;;;5051201;28;20122;-71
2021/09/05 12:42:20;;;;;;;15.90;6.50;;;19.60;74.40;;;;;;5095608;28;20045;-70
2021/09/05 12:44:50;;;;;;;12.45;6.75;;;19.60;74.50;;;;;;5077652;28;20052;-70
2021/09/05 12:47:29;;;;;;;12.98;6.20;;;19.50;74.60;;;;;;5075938;28;20096;-70